Time;durP1;ratioP1;P1;durP2;ratioP2;P2;SDS_P1;SDS_P2;PMS_P1;PMS_P2;Temp;Humidity;BMP_temperature;BMP_pressure;BME280_temperature;BME280_humidity;BME280_pressure;Samples;Min_cycle;Max_cycle;Signal;HPM_P1;HPM_P2
2021/06/13 00:01:18;;;;;;;3.23;2.07;;;25.10;51.80;;;;;;4898946;29;20928;-79
2021/06/13 00:03:48;;;;;;;2.57;2.00;;;25.10;51.80;;;;;;4898046;29;20241;-80
2021/06/13 00:06:14;;;;;;;2.30;2.10;;;25.10;51.90;;;;;;4898773;29;21034;-80
2021/06/13 00:08:43;;;;;;;3.07;2.50;;;25.10;51.90;;;;;;4882769;29;20426;-79
2021/06/13 00:11:10;;;;;;;2.27;2.03;;;25.10;51.80;;;;;;4912579;29;20426;-79
2021/06/13 00:13:36;;;;;;;2.83;2.47;;;25.10;51.80;;;;;;4975170;29;20414;-79
2021/06/13 00:16:04;;;;;;;3.33;2.60;;;25.10;51.70;;;;;;4976402;29;20434;-79
2021/06/13 00:18:34;;;;;;;3.03;2.10;;;25.10;51.60;;;;;;4976202;28;20920;-79
2021/06/13 00:21:04;;;;;;;2.40;2.20;;;25.10;51.60;;;;;;4975796;28;20915;-80
2021/06/13 00:23:32;;;;;;;2.33;2.07;;;25.10;51.70;;;;;;4977432;28;20453;-79
2021/06/13 00:25:59;;;;;;;4.80;2.20;;;25.10;51.80;;;;;;4976010;29;20448;-80
2021/06/13 00:28:26;;;;;;;4.10;2.40;;;25.10;51.60;;;;;;4975302;29;20452;-79
2021/06/13 00:31:19;;;;;;;3.57;2.23;;;25.10;51.40;;;;;;4965182;29;20458;-79
2021/06/13 00:33:50;;;;;;;3.23;2.00;;;25.10;51.60;;;;;;4955369;29;20454;-79
2021/06/13 00:36:20;;;;;;;3.33;1.97;;;25.00;51.60;;;;;;4956945;29;20406;-79
2021/06/13 00:38:46;;;;;;;3.30;2.60;;;25.00;51.40;;;;;;4954971;29;20423;-79
2021/06/13 00:41:16;;;;;;;2.47;2.23;;;25.00;51.60;;;;;;4955119;29;20422;-78
2021/06/13 00:43:45;;;;;;;2.83;2.40;;;25.00;51.40;;;;;;4955870;29;20453;-79
2021/06/13 00:46:11;;;;;;;3.10;2.10;;;25.00;51.50;;;;;;4956490;29;20407;-80
2021/06/13 00:48:37;;;;;;;2.30;2.10;;;25.00;51.50;;;;;;4954748;29;20459;-80
2021/06/13 00:51:09;;;;;;;3.33;2.00;;;25.00;51.40;;;;;;4955990;29;20902;-79
2021/06/13 00:53:36;;;;;;;3.30;2.30;;;24.90;51.50;;;;;;4954650;29;20451;-80
2021/06/13 00:56:08;;;;;;;3.30;1.70;;;24.90;51.20;;;;;;4955138;29;20419;-79
2021/06/13 00:58:45;;;;;;;3.30;2.00;;;24.90;51.40;;;;;;4956456;29;20418;-79
2021/06/13 01:01:11;;;;;;;2.80;2.27;;;24.80;50.90;;;;;;4954413;29;20418;-79
2021/06/13 01:03:37;;;;;;;2.30;2.03;;;24.90;51.50;;;;;;4955789;29;20523;-79
2021/06/13 01:06:10;;;;;;;2.23;2.00;;;24.90;51.60;;;;;;4955704;29;20171;-80
2021/06/13 01:08:49;;;;;;;4.33;2.80;;;24.90;51.40;;;;;;4938702;29;20238;-79
2021/06/13 01:11:40;;;;;;;2.30;2.10;;;24.90;51.40;;;;;;4958801;29;20963;-79
2021/06/13 01:14:32;;;;;;;2.73;2.40;;;24.90;51.50;;;;;;4974860;29;20413;-80
2021/06/13 01:17:25;;;;;;;3.10;2.30;;;24.90;51.60;;;;;;4957523;29;20477;-80
2021/06/13 01:20:24;;;;;;;2.70;2.13;;;24.90;51.40;;;;;;4957376;29;20414;-79
2021/06/13 01:26:23;;;;;;;2.30;2.10;;;24.80;51.40;;;;;;4974355;29;20441;-80
2021/06/13 01:29:06;;;;;;;2.27;2.07;;;24.70;51.30;;;;;;4975019;29;20434;-80
2021/06/13 01:31:43;;;;;;;3.30;2.13;;;24.80;51.50;;;;;;4958041;29;20398;-81
2021/06/13 01:34:22;;;;;;;2.30;1.90;;;24.80;51.70;;;;;;4960388;29;20421;-81
2021/06/13 01:36:49;;;;;;;3.40;2.07;;;24.80;51.60;;;;;;4958977;29;20421;-81
2021/06/13 01:39:25;;;;;;;2.23;2.03;;;24.80;51.40;;;;;;4958846;29;20419;-82
2021/06/13 01:41:53;;;;;;;7.40;3.57;;;24.80;51.40;;;;;;4958755;29;20422;-81
2021/06/13 01:44:29;;;;;;;3.03;2.50;;;24.80;51.40;;;;;;4927242;29;20538;-81
2021/06/13 01:47:02;;;;;;;2.47;1.70;;;24.80;51.30;;;;;;4975322;29;20406;-80
2021/06/13 01:49:35;;;;;;;2.40;2.10;;;24.70;51.30;;;;;;4958459;29;20477;-81
2021/06/13 01:52:12;;;;;;;1.87;1.60;;;24.70;51.20;;;;;;4957438;29;20434;-81
2021/06/13 01:54:38;;;;;;;3.13;2.10;;;24.70;51.20;;;;;;4975534;29;20430;-81
2021/06/13 01:57:07;;;;;;;2.80;2.30;;;24.70;51.30;;;;;;4975542;29;20872;-81
2021/06/13 01:59:35;;;;;;;2.00;1.60;;;24.70;51.30;;;;;;4957852;29;20489;-81
2021/06/13 02:02:04;;;;;;;2.27;1.70;;;24.70;51.40;;;;;;4958289;29;20422;-81
2021/06/13 02:04:32;;;;;;;2.40;1.83;;;24.80;51.60;;;;;;4973876;28;20453;-81
2021/06/13 02:07:03;;;;;;;3.20;1.80;;;24.80;51.30;;;;;;4975316;29;20417;-81
2021/06/13 02:09:30;;;;;;;3.90;1.90;;;24.80;51.30;;;;;;4958373;29;20507;-81
2021/06/13 02:12:02;;;;;;;1.70;1.50;;;24.80;51.40;;;;;;4958045;29;20418;-81
2021/06/13 02:14:44;;;;;;;2.77;1.67;;;24.70;51.30;;;;;;4959698;29;20410;-81
2021/06/13 02:23:56;;;;;;;3.67;2.20;;;24.70;51.30;;;;;;4920174;29;20502;-80
2021/06/13 02:26:29;;;;;;;1.80;1.40;;;24.70;51.30;;;;;;4904652;29;20456;-80
2021/06/13 02:28:58;;;;;;;2.23;2.03;;;24.70;51.30;;;;;;4920232;29;20401;-80
2021/06/13 02:31:29;;;;;;;1.90;1.60;;;24.80;51.30;;;;;;4903994;29;20437;-80
2021/06/13 02:33:55;;;;;;;2.33;2.00;;;24.70;51.20;;;;;;4919938;29;20449;-80
2021/06/13 02:36:26;;;;;;;2.03;1.80;;;24.80;51.20;;;;;;4904471;29;20488;-80
2021/06/13 02:38:56;;;;;;;4.27;2.03;;;24.80;51.20;;;;;;4919715;29;20486;-80
2021/06/13 02:41:22;;;;;;;2.53;2.13;;;24.80;51.20;;;;;;4919885;29;20456;-80
2021/06/13 02:43:49;;;;;;;1.80;1.60;;;24.70;51.50;;;;;;4903974;29;20553;-80
2021/06/13 02:46:35;;;;;;;2.63;1.80;;;24.80;51.20;;;;;;4903941;29;20412;-80
2021/06/13 02:49:05;;;;;;;2.37;1.90;;;24.70;51.10;;;;;;4904173;29;20619;-80
2021/06/13 02:51:48;;;;;;;3.03;2.27;;;24.70;51.30;;;;;;4904449;29;20416;-80
2021/06/13 02:54:19;;;;;;;2.50;1.93;;;24.70;51.20;;;;;;4898708;29;20453;-79
2021/06/13 02:56:55;;;;;;;3.70;2.17;;;24.70;51.40;;;;;;4928531;29;20449;-78
2021/06/13 03:00:01;;;;;;;2.90;1.87;;;24.60;51.10;;;;;;4979898;28;20410;-79
2021/06/13 03:06:16;;;;;;;2.57;2.00;;;24.60;51.30;;;;;;4865019;29;20456;-80
2021/06/13 03:08:45;;;;;;;3.50;2.27;;;24.60;51.80;;;;;;4850129;29;20408;-79
2021/06/13 03:11:14;;;;;;;2.00;1.90;;;24.60;51.30;;;;;;4865573;29;20427;-80
2021/06/13 03:13:43;;;;;;;2.90;1.97;;;24.60;51.40;;;;;;4865223;29;20415;-80
2021/06/13 03:16:22;;;;;;;3.10;2.10;;;24.60;51.40;;;;;;4850204;29;20399;-80
2021/06/13 03:19:10;;;;;;;2.83;2.10;;;24.50;51.30;;;;;;4850151;29;20430;-80
2021/06/13 03:21:36;;;;;;;2.10;1.90;;;24.60;51.40;;;;;;4865181;29;20408;-80
2021/06/13 03:30:33;;;;;;;2.83;2.20;;;24.60;51.30;;;;;;4864387;29;20527;-80
2021/06/13 03:33:00;;;;;;;3.43;2.20;;;24.50;51.50;;;;;;4867177;29;20414;-80
2021/06/13 03:35:30;;;;;;;2.30;1.83;;;24.50;51.40;;;;;;4882987;29;20442;-80
2021/06/13 03:37:57;;;;;;;2.10;1.90;;;24.50;51.30;;;;;;4883017;29;20418;-80
2021/06/13 03:40:25;;;;;;;3.10;2.13;;;24.50;51.40;;;;;;4918907;29;20409;-80
2021/06/13 03:42:55;;;;;;;1.83;1.70;;;24.50;51.10;;;;;;4920346;29;20413;-80
2021/06/13 03:45:25;;;;;;;2.63;1.60;;;24.50;51.20;;;;;;4920098;29;20428;-81
2021/06/13 03:47:53;;;;;;;3.23;1.73;;;24.50;51.20;;;;;;4904240;29;20419;-80
2021/06/13 03:50:20;;;;;;;1.77;1.67;;;24.50;51.20;;;;;;4904083;29;20552;-80
2021/06/13 03:52:49;;;;;;;2.77;1.77;;;24.50;51.30;;;;;;4904337;29;20457;-80
2021/06/13 03:55:36;;;;;;;3.50;2.07;;;24.50;51.20;;;;;;4904394;29;20500;-80
2021/06/13 04:01:24;;;;;;;2.80;1.90;;;24.50;51.10;;;;;;4920101;29;20472;-80
2021/06/13 04:07:30;;;;;;;2.50;2.03;;;24.50;51.20;;;;;;4938804;29;20481;-80
2021/06/13 04:10:07;;;;;;;2.60;1.93;;;24.50;51.00;;;;;;4923269;29;20416;-80
2021/06/13 04:12:39;;;;;;;1.80;1.70;;;24.50;51.10;;;;;;4923017;29;20435;-80
2021/06/13 04:15:10;;;;;;;3.23;2.20;;;24.50;51.10;;;;;;4923152;29;20459;-80
2021/06/13 04:17:41;;;;;;;2.53;1.73;;;24.50;51.20;;;;;;4923073;29;20492;-80
2021/06/13 04:20:12;;;;;;;2.67;1.70;;;24.50;51.10;;;;;;4922786;29;20416;-80
2021/06/13 04:22:41;;;;;;;3.77;2.30;;;24.60;51.10;;;;;;4923199;29;20456;-80
2021/06/13 04:25:09;;;;;;;2.83;1.90;;;24.60;51.10;;;;;;4922416;29;20559;-78
2021/06/13 04:27:37;;;;;;;1.73;1.60;;;24.70;51.20;;;;;;4933335;29;20424;-80
2021/06/13 04:30:08;;;;;;;2.10;1.83;;;24.70;51.00;;;;;;4911066;29;201360;-80
2021/06/13 04:32:34;;;;;;;2.43;1.67;;;24.80;51.10;;;;;;4905109;29;20412;-80
2021/06/13 04:35:01;;;;;;;2.30;1.90;;;24.80;51.10;;;;;;4919899;29;20900;-79
2021/06/13 04:37:27;;;;;;;2.47;2.20;;;24.80;50.90;;;;;;4919700;29;20431;-80
2021/06/13 04:39:53;;;;;;;4.53;1.73;;;24.80;50.90;;;;;;4936568;29;20446;-80
2021/06/13 04:42:20;;;;;;;2.93;1.40;;;24.90;51.00;;;;;;4919954;29;20419;-80
2021/06/13 04:44:46;;;;;;;1.77;1.67;;;24.90;50.90;;;;;;4957092;29;20472;-79
2021/06/13 04:47:13;;;;;;;1.90;1.70;;;24.90;50.90;;;;;;4958352;29;20426;-79
2021/06/13 04:49:39;;;;;;;2.47;2.13;;;24.90;50.90;;;;;;4958368;29;20206;-79
2021/06/13 04:52:11;;;;;;;2.10;1.63;;;25.00;50.90;;;;;;4958476;29;20445;-79
2021/06/13 04:54:53;;;;;;;3.90;1.90;;;25.00;50.90;;;;;;4958330;29;20167;-79
2021/06/13 04:57:19;;;;;;;2.53;1.50;;;25.00;50.80;;;;;;4943763;29;20448;-79
2021/06/13 05:00:00;;;;;;;2.00;1.90;;;25.00;50.80;;;;;;4958434;29;20425;-79
2021/06/13 05:02:26;;;;;;;1.90;1.60;;;25.10;50.90;;;;;;4975622;29;20166;-79
2021/06/13 05:04:56;;;;;;;2.10;1.83;;;25.10;50.90;;;;;;4974222;29;20461;-79
2021/06/13 05:07:22;;;;;;;2.50;2.10;;;25.10;50.90;;;;;;4958323;29;20445;-79
2021/06/13 05:09:51;;;;;;;3.40;1.77;;;25.10;50.90;;;;;;4974894;29;20418;-79
2021/06/13 05:12:18;;;;;;;1.90;1.53;;;25.10;50.80;;;;;;4958520;29;20428;-79
2021/06/13 05:14:44;;;;;;;1.93;1.83;;;25.10;50.80;;;;;;4974058;29;20450;-80
2021/06/13 05:17:10;;;;;;;1.70;1.50;;;25.10;50.80;;;;;;4958532;29;20192;-79
2021/06/13 05:19:39;;;;;;;2.17;1.87;;;25.10;50.80;;;;;;4973974;29;20266;-80
2021/06/13 05:22:11;;;;;;;3.03;2.07;;;25.20;50.90;;;;;;4973983;29;20416;-79
2021/06/13 05:24:37;;;;;;;2.23;1.80;;;25.20;50.90;;;;;;4958436;29;20809;-79
2021/06/13 05:27:06;;;;;;;2.40;1.80;;;25.30;50.90;;;;;;4974972;29;20406;-79
2021/06/13 05:29:32;;;;;;;2.03;1.83;;;25.30;51.00;;;;;;4974512;29;20173;-79
2021/06/13 05:31:58;;;;;;;1.77;1.53;;;25.20;50.90;;;;;;4958204;29;20581;-79
2021/06/13 05:34:24;;;;;;;2.60;1.90;;;25.20;50.90;;;;;;4958397;29;20452;-79
2021/06/13 05:36:56;;;;;;;2.00;1.70;;;25.30;50.80;;;;;;4958486;29;20505;-80
2021/06/13 05:39:31;;;;;;;4.30;1.87;;;25.30;50.80;;;;;;4956415;29;20425;-80
2021/06/13 05:42:03;;;;;;;2.47;2.03;;;25.30;50.90;;;;;;4973751;29;20422;-80
2021/06/13 05:44:32;;;;;;;2.93;1.60;;;25.30;50.80;;;;;;4957793;29;20456;-80
2021/06/13 05:46:58;;;;;;;2.53;1.60;;;25.30;50.80;;;;;;4973422;29;20430;-81
2021/06/13 05:49:26;;;;;;;2.40;2.00;;;25.30;50.90;;;;;;4958659;29;20429;-81
2021/06/13 05:51:57;;;;;;;3.53;1.73;;;25.30;50.90;;;;;;4959516;29;20170;-81
2021/06/13 05:54:29;;;;;;;2.23;1.70;;;25.30;50.90;;;;;;4959198;29;20783;-81
2021/06/13 05:56:58;;;;;;;2.50;1.70;;;25.30;50.80;;;;;;4958753;29;20414;-81
2021/06/13 05:59:26;;;;;;;2.43;1.70;;;25.30;50.60;;;;;;4958864;29;20437;-81
2021/06/13 06:01:53;;;;;;;2.03;1.83;;;25.30;50.40;;;;;;4976813;29;20426;-80
2021/06/13 06:04:18;;;;;;;2.53;2.00;;;25.30;50.40;;;;;;4961218;29;20462;-80
2021/06/13 06:06:44;;;;;;;2.63;2.17;;;25.20;50.30;;;;;;4963231;29;20425;-80
2021/06/13 06:09:20;;;;;;;1.97;1.77;;;25.20;50.10;;;;;;4963078;29;20178;-80
2021/06/13 06:11:46;;;;;;;1.80;1.57;;;25.20;50.20;;;;;;4980143;28;20235;-80
2021/06/13 06:14:15;;;;;;;3.50;1.90;;;25.20;50.40;;;;;;4962898;29;20418;-81
2021/06/13 06:16:45;;;;;;;2.37;2.17;;;25.20;50.50;;;;;;4980149;28;20510;-81
2021/06/13 06:19:11;;;;;;;3.03;2.03;;;25.20;50.60;;;;;;4963446;28;20406;-80
2021/06/13 06:21:40;;;;;;;3.50;1.80;;;25.20;50.50;;;;;;4979967;29;20426;-80
2021/06/13 06:24:11;;;;;;;3.80;1.80;;;25.20;50.40;;;;;;4962961;29;20611;-80
2021/06/13 06:26:41;;;;;;;1.87;1.57;;;25.20;50.40;;;;;;4963223;29;20425;-80
2021/06/13 06:29:09;;;;;;;2.47;1.80;;;25.20;50.10;;;;;;4963140;29;20485;-80
2021/06/13 06:31:35;;;;;;;2.20;1.80;;;25.30;50.20;;;;;;4961575;28;20541;-80
2021/06/13 06:34:12;;;;;;;2.90;2.17;;;25.20;50.00;;;;;;4979517;29;20418;-80
2021/06/13 06:36:38;;;;;;;1.73;1.50;;;25.20;49.80;;;;;;4962506;29;20448;-80
2021/06/13 06:39:08;;;;;;;5.50;2.17;;;25.20;49.80;;;;;;4962649;29;20461;-80
2021/06/13 06:41:41;;;;;;;2.13;1.93;;;25.20;50.00;;;;;;4978667;29;20420;-81
2021/06/13 06:44:09;;;;;;;4.30;2.10;;;25.10;49.80;;;;;;4961139;29;20489;-80
2021/06/13 06:46:42;;;;;;;3.13;2.23;;;25.10;49.80;;;;;;4959597;29;20422;-80
2021/06/13 06:49:10;;;;;;;2.10;1.90;;;25.10;49.80;;;;;;4962500;28;20422;-80
2021/06/13 06:51:39;;;;;;;2.47;1.93;;;25.10;49.80;;;;;;4963003;28;20399;-80
2021/06/13 06:54:05;;;;;;;3.23;2.00;;;25.10;50.00;;;;;;4962054;29;20441;-79
2021/06/13 06:56:33;;;;;;;2.73;1.90;;;25.10;50.10;;;;;;4978817;29;20417;-79
2021/06/13 06:59:02;;;;;;;2.30;1.80;;;25.10;49.70;;;;;;4962581;29;20442;-79
2021/06/13 07:01:28;;;;;;;2.67;2.00;;;25.10;49.40;;;;;;4978647;29;20429;-80
2021/06/13 07:03:54;;;;;;;2.83;1.87;;;25.10;49.40;;;;;;4979359;29;20469;-80
2021/06/13 07:06:20;;;;;;;2.90;2.07;;;25.10;50.40;;;;;;4962228;29;20422;-80
2021/06/13 07:12:09;;;;;;;3.53;2.10;;;25.00;49.00;;;;;;4979207;29;20469;-80
2021/06/13 07:14:35;;;;;;;3.47;2.17;;;25.00;49.40;;;;;;4978336;29;20394;-79
2021/06/13 07:17:06;;;;;;;3.47;2.30;;;25.10;49.60;;;;;;4977759;29;20532;-80
2021/06/13 07:19:35;;;;;;;2.87;1.87;;;25.10;49.70;;;;;;4978022;29;20159;-79
2021/06/13 07:22:07;;;;;;;3.93;2.30;;;25.10;49.70;;;;;;4961026;29;20432;-80
2021/06/13 07:24:35;;;;;;;4.10;2.30;;;25.10;49.80;;;;;;4978330;28;20449;-80
2021/06/13 07:27:10;;;;;;;2.63;2.43;;;25.10;49.80;;;;;;4961419;29;20440;-80
2021/06/13 07:29:36;;;;;;;3.00;2.00;;;25.10;49.70;;;;;;4978462;29;20385;-80
2021/06/13 07:32:08;;;;;;;2.73;2.17;;;25.10;49.80;;;;;;4976461;29;20464;-80
2021/06/13 07:34:58;;;;;;;4.53;1.83;;;25.10;49.60;;;;;;4977690;29;20409;-80
2021/06/13 07:37:38;;;;;;;2.30;1.90;;;25.10;49.70;;;;;;4975820;29;20403;-81
2021/06/13 07:40:09;;;;;;;4.20;2.50;;;25.10;49.60;;;;;;4960787;29;20414;-81
2021/06/13 07:42:43;;;;;;;2.80;2.00;;;25.10;49.10;;;;;;4978677;29;20413;-81
2021/06/13 07:45:15;;;;;;;2.63;2.00;;;25.10;49.10;;;;;;4978143;29;20497;-81
2021/06/13 07:47:42;;;;;;;1.97;1.87;;;25.00;49.40;;;;;;4961627;29;20393;-81
2021/06/13 07:53:51;;;;;;;3.07;2.77;;;25.00;49.00;;;;;;4978706;29;20437;-81
2021/06/13 07:56:57;;;;;;;2.80;2.10;;;25.00;49.10;;;;;;4974101;28;20441;-80
2021/06/13 08:03:33;;;;;;;3.37;2.10;;;25.00;49.40;;;;;;4942917;29;20360;-79
2021/06/13 08:14:01;;;;;;;2.10;1.83;;;24.90;49.00;;;;;;4887075;29;20414;-79
2021/06/13 08:19:59;;;;;;;2.63;2.43;;;24.90;49.00;;;;;;4887590;29;20442;-79
2021/06/13 08:22:26;;;;;;;2.77;2.53;;;24.90;49.10;;;;;;4887157;29;20419;-79
2021/06/13 08:24:52;;;;;;;3.13;2.50;;;24.90;49.30;;;;;;4871855;29;20462;-79
2021/06/13 08:27:23;;;;;;;2.40;2.10;;;24.90;49.40;;;;;;4871253;29;20475;-79
2021/06/13 08:29:52;;;;;;;3.60;2.30;;;25.00;49.60;;;;;;4886381;29;20166;-79
2021/06/13 08:32:20;;;;;;;4.20;2.50;;;25.00;49.80;;;;;;4864850;29;20452;-79
2021/06/13 08:34:47;;;;;;;3.03;2.50;;;25.00;49.70;;;;;;4865309;29;20502;-79
2021/06/13 08:37:19;;;;;;;4.37;2.43;;;25.00;49.60;;;;;;4865703;29;20426;-79
2021/06/13 08:39:45;;;;;;;3.70;2.30;;;25.00;49.20;;;;;;4880769;29;20423;-79
2021/06/13 08:42:15;;;;;;;2.27;1.90;;;25.00;49.20;;;;;;4882073;29;20430;-78
2021/06/13 08:45:14;;;;;;;;;;;;;;;;;;;;;
2021/06/13 08:47:47;;;;;;;4.03;2.60;;;25.00;49.50;;;;;;4898201;29;20429;-78
2021/06/13 08:50:19;;;;;;;2.77;2.43;;;25.00;49.60;;;;;;4900864;29;20385;-79
2021/06/13 08:52:52;;;;;;;4.73;2.27;;;25.00;49.70;;;;;;4889300;29;20436;-79
2021/06/13 08:55:23;;;;;;;3.17;2.60;;;25.00;49.50;;;;;;4889610;29;20430;-79
2021/06/13 08:58:04;;;;;;;2.63;2.43;;;25.00;48.70;;;;;;4889815;29;20434;-78
2021/06/13 09:00:45;;;;;;;3.70;2.30;;;25.00;48.70;;;;;;4906964;29;20448;-80
2021/06/13 09:03:29;;;;;;;5.53;2.67;;;25.00;49.20;;;;;;4904491;29;20402;-80
2021/06/13 09:06:27;;;;;;;3.80;2.40;;;25.00;49.10;;;;;;4904859;29;20420;-80
2021/06/13 09:08:55;;;;;;;2.57;1.93;;;25.00;49.00;;;;;;4910557;29;20429;-81
2021/06/13 09:11:39;;;;;;;4.90;2.37;;;25.00;49.20;;;;;;4907803;29;20433;-79
2021/06/13 09:14:15;;;;;;;3.10;2.30;;;25.00;48.90;;;;;;4962493;23;20495;-79
2021/06/13 09:16:47;;;;;;;6.43;2.50;;;25.00;49.00;;;;;;4954074;29;20442;-80
2021/06/13 09:19:13;;;;;;;4.93;2.40;;;25.00;49.10;;;;;;4955102;29;21097;-79
2021/06/13 09:22:30;;;;;;;3.20;2.40;;;24.90;48.70;;;;;;4959895;29;20475;-79
2021/06/13 09:25:16;;;;;;;3.23;2.40;;;25.00;48.70;;;;;;4950467;29;20454;-79
2021/06/13 09:35:20;;;;;;;4.80;2.00;;;25.00;48.80;;;;;;4930455;29;20419;-79
2021/06/13 09:38:37;;;;;;;4.73;2.60;;;24.90;48.90;;;;;;4931280;29;20436;-79
2021/06/13 09:44:27;;;;;;;3.63;3.27;;;25.00;49.20;;;;;;4925908;29;20507;-79
2021/06/13 09:46:54;;;;;;;2.60;2.23;;;24.90;48.60;;;;;;4922756;29;20528;-79
2021/06/13 09:49:21;;;;;;;3.13;2.40;;;24.90;48.60;;;;;;4932436;29;20459;-79
2021/06/13 09:51:54;;;;;;;4.60;2.50;;;24.90;48.10;;;;;;4929361;29;20426;-79
2021/06/13 09:54:34;;;;;;;6.83;2.80;;;24.90;47.70;;;;;;4929061;29;20420;-79
2021/06/13 09:57:03;;;;;;;3.10;2.17;;;24.90;47.90;;;;;;4930366;29;20425;-79
2021/06/13 09:59:38;;;;;;;2.80;1.93;;;24.90;48.30;;;;;;4913495;29;20424;-79
2021/06/13 10:02:06;;;;;;;2.53;1.90;;;24.90;48.50;;;;;;4942803;29;20436;-79
2021/06/13 10:04:40;;;;;;;3.73;2.27;;;24.90;48.60;;;;;;4953411;29;20454;-79
2021/06/13 10:07:20;;;;;;;2.93;1.97;;;24.90;48.60;;;;;;4948474;29;20419;-79
2021/06/13 10:09:52;;;;;;;6.00;2.17;;;24.90;48.20;;;;;;4954433;29;20423;-80
2021/06/13 10:12:20;;;;;;;3.40;2.20;;;24.90;48.00;;;;;;4953341;29;20459;-80
2021/06/13 10:14:53;;;;;;;2.63;1.83;;;24.90;48.50;;;;;;4945483;29;20879;-80
2021/06/13 10:17:32;;;;;;;3.00;2.20;;;24.90;48.50;;;;;;4949771;29;20932;-79
2021/06/13 10:19:58;;;;;;;2.47;1.90;;;24.90;48.70;;;;;;4952885;29;20451;-79
2021/06/13 10:22:25;;;;;;;3.97;2.73;;;24.90;48.30;;;;;;4952391;29;20414;-79
2021/06/13 10:25:01;;;;;;;2.80;2.33;;;24.90;48.30;;;;;;4949898;29;20458;-79
2021/06/13 10:27:28;;;;;;;3.43;2.27;;;24.90;48.20;;;;;;4953001;29;20422;-83
2021/06/13 10:29:58;;;;;;;3.03;2.30;;;24.90;48.30;;;;;;4948135;29;20427;-79
2021/06/13 10:32:29;;;;;;;3.23;2.27;;;25.00;48.10;;;;;;4961604;29;20423;-79
2021/06/13 10:34:55;;;;;;;2.10;1.90;;;24.90;48.10;;;;;;4941554;29;20439;-79
2021/06/13 10:37:26;;;;;;;2.70;2.03;;;25.00;48.50;;;;;;4952418;29;20426;-79
2021/06/13 10:39:55;;;;;;;3.43;2.27;;;24.90;48.00;;;;;;4943538;29;20893;-79
2021/06/13 10:42:28;;;;;;;2.30;2.10;;;25.00;48.30;;;;;;4949825;29;20431;-79
2021/06/13 10:44:59;;;;;;;3.10;2.30;;;25.00;48.80;;;;;;4936000;29;20518;-79
2021/06/13 10:47:27;;;;;;;2.43;2.00;;;24.90;48.20;;;;;;4952551;29;20430;-79
2021/06/13 10:49:59;;;;;;;3.07;1.93;;;24.90;48.30;;;;;;4950759;29;20427;-80
2021/06/13 10:59:02;;;;;;;2.33;2.10;;;25.00;48.70;;;;;;4948430;29;20510;-80
2021/06/13 11:01:29;;;;;;;4.20;2.57;;;24.90;48.70;;;;;;4944464;29;20423;-79
2021/06/13 11:10:47;;;;;;;4.10;1.60;;;24.90;47.80;;;;;;4915142;28;20388;-79
2021/06/13 11:13:22;;;;;;;3.00;2.30;;;24.90;48.20;;;;;;4900035;29;20444;-79
2021/06/13 11:15:53;;;;;;;2.10;1.90;;;24.90;48.30;;;;;;4898933;29;20404;-79
2021/06/13 11:18:22;;;;;;;2.17;1.97;;;24.90;48.00;;;;;;4899647;29;20497;-79
2021/06/13 11:20:50;;;;;;;2.23;2.03;;;24.90;47.80;;;;;;4892751;29;20493;-81
2021/06/13 11:23:24;;;;;;;2.40;1.93;;;24.90;47.90;;;;;;4896393;29;20427;-81
2021/06/13 11:26:01;;;;;;;3.37;2.27;;;24.90;48.20;;;;;;4919517;29;20423;-81
2021/06/13 11:28:49;;;;;;;2.70;2.10;;;24.90;48.30;;;;;;4903734;29;20436;-80
2021/06/13 11:31:25;;;;;;;4.23;1.90;;;24.90;48.30;;;;;;4916972;29;20461;-81
2021/06/13 11:34:14;;;;;;;4.50;2.33;;;24.90;48.20;;;;;;4884352;29;20449;-80
2021/06/13 11:43:30;;;;;;;3.77;2.07;;;24.90;48.40;;;;;;4890506;29;20421;-81
2021/06/13 11:46:10;;;;;;;2.23;2.03;;;24.90;48.50;;;;;;4897832;29;20452;-80
2021/06/13 11:49:20;;;;;;;2.23;2.03;;;24.90;48.60;;;;;;4914969;29;20413;-80
2021/06/13 11:55:52;;;;;;;5.20;2.33;;;24.90;47.70;;;;;;4910237;29;20432;-81
2021/06/13 11:58:27;;;;;;;2.50;2.10;;;24.90;47.50;;;;;;4903009;29;20448;-81
2021/06/13 12:30:34;;;;;;;2.50;1.90;;;24.80;47.00;;;;;;4813063;29;20408;-80
2021/06/13 12:33:21;;;;;;;1.90;1.80;;;24.80;47.30;;;;;;4826562;29;20417;-80
2021/06/13 12:36:31;;;;;;;2.27;1.80;;;24.90;47.50;;;;;;4844403;29;20514;-80
2021/06/13 12:42:19;;;;;;;2.20;2.00;;;24.80;46.70;;;;;;4861247;29;20429;-79
2021/06/13 12:45:22;;;;;;;4.00;1.80;;;24.80;46.90;;;;;;4874275;29;20470;-79
2021/06/13 12:47:54;;;;;;;2.70;1.80;;;24.80;47.10;;;;;;4870433;29;20230;-78
2021/06/13 12:50:36;;;;;;;2.43;2.23;;;24.80;46.50;;;;;;4876032;29;20426;-78
2021/06/13 12:53:07;;;;;;;4.27;2.30;;;24.80;46.90;;;;;;4862563;29;20427;-78
2021/06/13 12:56:04;;;;;;;3.07;2.00;;;24.80;46.50;;;;;;4862775;29;20458;-80
2021/06/13 12:58:41;;;;;;;3.27;1.77;;;24.80;46.60;;;;;;4893040;29;20413;-80
2021/06/13 13:01:07;;;;;;;2.00;1.80;;;24.80;46.70;;;;;;4915990;29;20407;-78
2021/06/13 13:03:41;;;;;;;3.00;2.30;;;24.80;46.80;;;;;;4899923;29;20459;-78
2021/06/13 13:06:12;;;;;;;2.53;1.93;;;24.80;46.80;;;;;;4900332;29;20445;-78
2021/06/13 13:08:43;;;;;;;2.87;1.80;;;24.90;47.00;;;;;;4899809;29;20420;-80
2021/06/13 13:11:21;;;;;;;4.23;2.10;;;24.90;47.20;;;;;;4900664;29;20428;-79
2021/06/13 13:13:54;;;;;;;3.93;2.03;;;24.90;47.40;;;;;;4899477;29;20459;-79
2021/06/13 13:17:07;;;;;;;1.90;1.67;;;24.90;47.10;;;;;;4899351;29;20433;-79
2021/06/13 13:19:34;;;;;;;4.83;2.30;;;24.90;47.00;;;;;;4916206;29;20436;-79
2021/06/13 13:22:19;;;;;;;2.13;1.93;;;24.90;46.80;;;;;;4915617;29;20436;-80
2021/06/13 13:24:45;;;;;;;2.30;2.07;;;24.90;46.80;;;;;;4900130;29;20480;-80
2021/06/13 13:27:31;;;;;;;3.43;2.10;;;24.90;47.00;;;;;;4900645;29;20856;-79
2021/06/13 13:30:07;;;;;;;1.80;1.57;;;24.90;47.30;;;;;;4964013;29;20462;-79
2021/06/13 13:32:58;;;;;;;3.00;2.03;;;24.90;47.40;;;;;;4961724;29;20415;-80
2021/06/13 13:42:21;;;;;;;2.50;2.10;;;24.90;46.70;;;;;;4962037;29;20480;-79
2021/06/13 13:44:50;;;;;;;2.60;1.93;;;24.80;46.80;;;;;;4961588;29;20454;-79
2021/06/13 13:47:20;;;;;;;3.00;1.87;;;24.80;47.00;;;;;;4962095;29;20437;-79
2021/06/13 13:49:46;;;;;;;2.47;2.27;;;24.90;46.90;;;;;;4962104;29;20384;-80
2021/06/13 13:52:24;;;;;;;2.77;1.90;;;24.90;46.80;;;;;;4961513;29;20433;-79
2021/06/13 13:55:05;;;;;;;2.83;1.90;;;24.90;47.10;;;;;;4915108;29;20411;-79
2021/06/13 13:57:47;;;;;;;2.10;1.90;;;24.90;47.40;;;;;;4960065;29;20423;-80
2021/06/13 14:00:21;;;;;;;1.97;1.77;;;24.90;47.20;;;;;;4955361;29;20411;-80
2021/06/13 14:12:27;;;;;;;;;;;;;;;;;;;;;
2021/06/13 14:14:56;;;;;;;4.17;2.07;;;24.90;46.80;;;;;;4960720;29;20403;-80
2021/06/13 14:36:25;;;;;;;;;;;;;;;;;;;;;
2021/06/13 14:38:57;;;;;;;3.00;1.80;;;24.90;46.70;;;;;;4939104;29;20439;-81
2021/06/13 14:41:50;;;;;;;2.80;1.80;;;24.90;46.40;;;;;;4923658;29;20484;-80
2021/06/13 14:44:41;;;;;;;2.47;1.77;;;24.90;46.50;;;;;;4923303;29;20467;-80
2021/06/13 15:00:17;;;;;;;3.40;1.90;;;24.90;46.60;;;;;;4882188;29;20422;-80
2021/06/13 15:03:07;;;;;;;2.90;1.80;;;24.80;46.60;;;;;;4866700;29;20418;-80
2021/06/13 15:05:41;;;;;;;3.10;2.00;;;24.90;46.60;;;;;;4866501;29;20450;-80
2021/06/13 15:08:40;;;;;;;2.60;2.20;;;24.90;46.50;;;;;;4916619;29;20957;-80
2021/06/13 15:15:02;;;;;;;3.93;2.10;;;24.90;46.30;;;;;;4919700;29;20487;-80
2021/06/13 15:17:44;;;;;;;2.63;1.70;;;24.80;46.40;;;;;;4897680;29;20468;-79
2021/06/13 15:26:45;;;;;;;2.50;1.97;;;24.90;46.40;;;;;;4921893;29;20445;-80
2021/06/13 15:35:56;;;;;;;3.30;2.33;;;24.80;46.10;;;;;;4955033;29;20480;-80
2021/06/13 15:38:22;;;;;;;2.67;1.70;;;24.80;46.30;;;;;;4954209;29;20443;-80
2021/06/13 15:41:01;;;;;;;4.50;2.00;;;24.80;46.40;;;;;;4954155;29;20490;-80
2021/06/13 15:43:30;;;;;;;2.80;1.80;;;24.90;47.00;;;;;;4954433;29;20442;-80
2021/06/13 15:46:53;;;;;;;4.17;2.10;;;24.90;46.40;;;;;;4953932;29;20434;-80
2021/06/13 15:50:34;;;;;;;2.47;1.97;;;24.90;47.10;;;;;;4896118;29;20445;-80
2021/06/13 15:57:08;;;;;;;1.90;1.60;;;24.90;46.40;;;;;;4786948;30;20864;-80
2021/06/13 15:59:51;;;;;;;2.60;2.17;;;24.80;46.30;;;;;;4787272;30;20430;-80
2021/06/13 16:02:22;;;;;;;2.13;1.80;;;24.80;46.40;;;;;;4804061;30;20426;-80
2021/06/13 16:04:51;;;;;;;2.30;1.67;;;24.80;46.50;;;;;;4803381;30;20469;-80
2021/06/13 16:07:18;;;;;;;3.03;1.63;;;24.90;46.60;;;;;;4804762;30;20498;-80
2021/06/13 16:09:45;;;;;;;2.53;2.10;;;24.80;46.60;;;;;;4804415;30;20521;-80
2021/06/13 16:12:38;;;;;;;2.93;2.00;;;24.90;46.70;;;;;;4802723;30;20560;-80
2021/06/13 16:15:13;;;;;;;2.53;2.10;;;24.90;46.80;;;;;;4783946;30;20426;-80
2021/06/13 16:17:42;;;;;;;2.80;2.27;;;24.90;46.80;;;;;;4805247;30;20422;-80
2021/06/13 16:20:11;;;;;;;2.10;1.80;;;24.90;46.60;;;;;;4804771;30;20427;-80
2021/06/13 16:22:40;;;;;;;2.57;1.97;;;24.90;46.60;;;;;;4805492;29;20430;-80
2021/06/13 16:25:10;;;;;;;2.43;1.90;;;24.90;46.70;;;;;;4807180;30;20465;-80
2021/06/13 16:27:40;;;;;;;3.30;1.83;;;24.90;46.80;;;;;;4891276;29;20473;-80
2021/06/13 16:30:26;;;;;;;2.10;1.80;;;24.90;46.70;;;;;;4917432;29;20492;-80